Time;durP1;ratioP1;P1;durP2;ratioP2;P2;SDS_P1;SDS_P2;PMS_P1;PMS_P2;Temp;Humidity;BMP_temperature;BMP_pressure;BME280_temperature;BME280_humidity;BME280_pressure;Samples;Min_cycle;Max_cycle;Signal;HPM_P1;HPM_P2
2023/08/18 00:00:39;;;;;;;34.92;31.65;;;23.60;99.90;;;;;;5095446;28;20066;-54
2023/08/18 00:03:05;;;;;;;36.03;32.80;;;23.60;99.90;;;;;;5114014;28;20372;-55
2023/08/18 00:05:30;;;;;;;35.85;32.45;;;23.60;99.90;;;;;;5114456;28;20273;-56
2023/08/18 00:07:56;;;;;;;36.08;32.63;;;23.60;99.90;;;;;;5114196;28;20027;-54
2023/08/18 00:10:22;;;;;;;35.63;32.33;;;23.60;99.90;;;;;;5114263;28;20495;-53
2023/08/18 00:12:48;;;;;;;36.25;32.65;;;23.40;99.90;;;;;;5061650;28;20387;-56
2023/08/18 00:15:13;;;;;;;38.65;34.53;;;23.40;99.90;;;;;;5113851;28;20066;-53
2023/08/18 00:17:41;;;;;;;37.53;34.08;;;23.30;99.90;;;;;;5113734;28;20035;-53
2023/08/18 00:20:08;;;;;;;38.25;34.50;;;23.10;99.90;;;;;;5113684;28;20067;-53
2023/08/18 00:22:34;;;;;;;38.47;34.53;;;23.10;99.90;;;;;;5095265;28;20043;-54
2023/08/18 00:25:00;;;;;;;37.92;34.35;;;23.10;99.90;;;;;;5113935;28;20023;-57
2023/08/18 00:27:26;;;;;;;35.47;31.90;;;23.00;99.90;;;;;;5113795;28;20463;-55
2023/08/18 00:29:52;;;;;;;37.88;34.30;;;23.00;99.90;;;;;;5114116;28;20038;-56
2023/08/18 00:32:17;;;;;;;39.83;35.72;;;23.00;99.90;;;;;;5111960;28;20032;-56
2023/08/18 00:34:43;;;;;;;39.15;35.53;;;23.10;99.90;;;;;;5113687;28;20034;-56
2023/08/18 00:37:09;;;;;;;41.08;36.88;;;23.10;99.90;;;;;;5113904;28;20073;-53
2023/08/18 00:39:34;;;;;;;39.95;35.90;;;23.00;99.90;;;;;;5114283;28;20023;-55
2023/08/18 00:42:00;;;;;;;40.08;35.78;;;23.10;99.90;;;;;;5113565;28;20032;-53
2023/08/18 00:44:26;;;;;;;35.60;32.20;;;23.00;99.90;;;;;;5113616;28;20542;-56
2023/08/18 00:46:52;;;;;;;32.83;29.83;;;23.00;99.90;;;;;;5113284;28;20024;-55
2023/08/18 00:49:18;;;;;;;35.28;31.88;;;23.00;99.90;;;;;;5113648;28;20062;-56
2023/08/18 00:51:45;;;;;;;37.33;33.38;;;23.10;99.90;;;;;;5113493;28;20085;-53
2023/08/18 00:54:12;;;;;;;38.65;34.33;;;23.10;99.90;;;;;;5113617;28;20034;-53
2023/08/18 00:56:39;;;;;;;37.42;33.03;;;23.10;99.90;;;;;;5113682;28;20035;-56
2023/08/18 00:59:06;;;;;;;37.35;33.70;;;23.00;99.90;;;;;;5113661;28;20019;-56
2023/08/18 01:01:33;;;;;;;39.08;35.45;;;23.10;99.90;;;;;;5113590;28;20031;-53
2023/08/18 01:04:00;;;;;;;38.78;34.90;;;23.10;99.90;;;;;;5113685;28;20034;-56
2023/08/18 01:06:25;;;;;;;36.35;32.97;;;23.10;99.90;;;;;;5113564;28;20053;-53
2023/08/18 01:08:52;;;;;;;34.95;31.63;;;23.10;99.90;;;;;;5090876;28;20145;-56
2023/08/18 01:11:25;;;;;;;35.10;31.67;;;23.10;99.90;;;;;;5073735;28;20060;-56
2023/08/18 01:14:29;;;;;;;35.08;31.58;;;23.10;99.90;;;;;;5090920;28;20032;-53
2023/08/18 01:17:06;;;;;;;36.65;32.88;;;23.10;99.90;;;;;;5090757;28;20193;-53
2023/08/18 01:19:33;;;;;;;38.42;34.58;;;23.10;99.90;;;;;;5090786;28;20072;-54
2023/08/18 01:21:59;;;;;;;40.97;36.78;;;23.10;99.90;;;;;;5090738;28;20024;-55
2023/08/18 01:24:26;;;;;;;38.22;34.42;;;23.10;99.90;;;;;;5090648;28;20065;-54
2023/08/18 01:26:52;;;;;;;35.28;31.80;;;23.10;99.90;;;;;;5090976;28;20039;-54
2023/08/18 01:29:22;;;;;;;37.47;33.00;;;23.10;99.90;;;;;;5090538;28;20039;-54
2023/08/18 01:31:53;;;;;;;34.80;31.42;;;23.00;99.90;;;;;;5056814;28;20412;-54
2023/08/18 01:34:21;;;;;;;37.50;33.83;;;23.10;99.90;;;;;;5090682;28;20039;-53
2023/08/18 01:36:49;;;;;;;40.47;36.45;;;23.10;99.90;;;;;;5090617;28;20040;-54
2023/08/18 01:39:18;;;;;;;40.78;36.53;;;23.10;99.90;;;;;;5096367;28;20031;-54
2023/08/18 01:41:45;;;;;;;41.17;37.17;;;23.10;99.90;;;;;;5113107;28;20032;-54
2023/08/18 01:44:14;;;;;;;42.50;38.40;;;23.10;99.90;;;;;;5113230;28;20139;-53
2023/08/18 01:46:41;;;;;;;41.75;37.63;;;23.00;99.90;;;;;;5113344;28;20023;-53
2023/08/18 01:49:07;;;;;;;42.03;37.97;;;23.00;99.90;;;;;;5094436;28;20127;-55
2023/08/18 01:51:32;;;;;;;43.42;38.88;;;23.00;99.90;;;;;;5113198;28;20055;-53
2023/08/18 01:53:58;;;;;;;42.22;38.22;;;;;;;;;;5094220;28;20027;-55
2023/08/18 01:56:24;;;;;;;43.17;38.90;;;23.00;99.90;;;;;;5112706;28;20043;-56
2023/08/18 01:58:50;;;;;;;42.35;38.15;;;23.00;99.90;;;;;;5113784;28;20170;-53
2023/08/18 02:01:16;;;;;;;42.97;38.85;;;22.90;99.90;;;;;;5116879;28;20032;-55
2023/08/18 02:03:42;;;;;;;44.13;39.45;;;22.90;99.90;;;;;;5116558;28;20031;-57
2023/08/18 02:06:08;;;;;;;43.30;39.05;;;22.70;99.90;;;;;;5116544;28;20428;-53
2023/08/18 02:08:34;;;;;;;43.75;39.47;;;22.70;99.90;;;;;;5116413;28;20035;-55
2023/08/18 02:11:04;;;;;;;43.50;38.95;;;22.70;99.90;;;;;;5116583;28;20039;-56
2023/08/18 02:13:30;;;;;;;43.40;39.13;;;22.50;99.90;;;;;;5097183;28;20050;-55
2023/08/18 02:15:56;;;;;;;46.33;41.45;;;22.60;99.90;;;;;;5116180;28;20596;-54
2023/08/18 02:18:22;;;;;;;46.17;41.10;;;22.60;99.90;;;;;;5115971;28;20028;-57
2023/08/18 02:20:58;;;;;;;42.50;38.13;;;22.60;99.90;;;;;;5116286;28;20115;-54
2023/08/18 02:23:23;;;;;;;45.08;40.30;;;22.50;99.90;;;;;;5116063;28;20443;-56
2023/08/18 02:25:49;;;;;;;44.40;39.90;;;22.30;99.90;;;;;;5116253;28;20031;-55
2023/08/18 02:28:17;;;;;;;44.78;39.97;;;22.40;99.90;;;;;;5096699;28;20082;-55
2023/08/18 02:30:44;;;;;;;42.95;38.75;;;22.40;99.90;;;;;;5115976;28;20023;-55
2023/08/18 02:33:10;;;;;;;45.40;40.80;;;22.30;99.90;;;;;;5116172;28;20015;-55
2023/08/18 02:35:35;;;;;;;43.03;38.72;;;22.30;99.90;;;;;;5116102;28;20061;-56
2023/08/18 02:38:01;;;;;;;45.90;41.10;;;22.30;99.90;;;;;;5096924;28;20078;-55
2023/08/18 02:40:27;;;;;;;44.50;39.85;;;22.30;99.90;;;;;;5115718;28;20046;-54
2023/08/18 02:42:52;;;;;;;43.75;39.22;;;22.30;99.90;;;;;;5097100;28;20071;-53
2023/08/18 02:45:18;;;;;;;44.65;40.08;;;22.30;99.90;;;;;;5096702;28;20050;-55
2023/08/18 02:47:44;;;;;;;43.92;39.42;;;22.30;99.90;;;;;;5096657;28;20040;-55
2023/08/18 02:50:10;;;;;;;41.90;37.63;;;22.40;99.90;;;;;;5115971;27;20475;-53
2023/08/18 02:52:36;;;;;;;43.33;39.05;;;22.30;99.90;;;;;;5115664;28;20035;-53
2023/08/18 02:55:02;;;;;;;44.53;40.20;;;22.30;99.90;;;;;;5115718;28;20535;-55
2023/08/18 02:57:27;;;;;;;44.53;40.22;;;22.20;99.90;;;;;;5115508;28;20031;-53
2023/08/18 02:59:53;;;;;;;44.72;40.40;;;22.20;99.90;;;;;;5115584;28;20039;-53
2023/08/18 03:02:19;;;;;;;49.60;40.60;;;22.20;99.90;;;;;;5115375;28;20486;-54
2023/08/18 03:04:44;;;;;;;45.38;40.72;;;22.20;99.90;;;;;;5115606;28;20371;-54
2023/08/18 03:07:10;;;;;;;45.58;41.15;;;22.20;99.90;;;;;;5115660;28;20024;-55
2023/08/18 03:09:36;;;;;;;46.63;41.80;;;22.20;99.90;;;;;;5115094;28;20024;-53
2023/08/18 03:12:02;;;;;;;46.83;42.03;;;22.20;99.90;;;;;;5115574;28;20030;-55
2023/08/18 03:14:27;;;;;;;46.35;41.67;;;22.20;99.90;;;;;;5115234;28;20054;-54
2023/08/18 03:16:53;;;;;;;42.03;38.03;;;22.00;99.90;;;;;;5115189;28;20085;-53
2023/08/18 03:19:19;;;;;;;42.70;38.47;;;21.90;99.90;;;;;;5115020;28;20034;-56
2023/08/18 03:21:44;;;;;;;44.10;39.50;;;22.00;99.90;;;;;;5114903;28;20022;-53
2023/08/18 03:24:10;;;;;;;47.50;42.72;;;22.00;99.90;;;;;;5114837;28;20111;-54
2023/08/18 03:26:36;;;;;;;45.38;40.80;;;22.10;99.90;;;;;;5096014;28;20031;-53
2023/08/18 03:29:02;;;;;;;45.10;40.53;;;22.00;99.90;;;;;;5114657;28;20115;-54
2023/08/18 03:31:27;;;;;;;46.17;41.42;;;22.10;99.90;;;;;;5095769;28;20036;-54
2023/08/18 03:33:53;;;;;;;46.38;41.85;;;22.10;99.90;;;;;;5045524;28;20031;-52
2023/08/18 03:36:20;;;;;;;46.53;41.58;;;22.00;99.90;;;;;;5095593;28;20085;-53
2023/08/18 03:38:46;;;;;;;47.97;42.90;;;22.00;99.90;;;;;;5114576;28;20039;-54
2023/08/18 03:41:12;;;;;;;45.47;40.90;;;22.00;99.90;;;;;;5095590;28;20065;-53
2023/08/18 03:43:38;;;;;;;47.00;42.17;;;22.10;99.90;;;;;;5114945;28;20396;-56
2023/08/18 03:46:22;;;;;;;46.58;41.60;;;22.10;99.90;;;;;;5114227;28;20050;-55
2023/08/18 03:48:49;;;;;;;44.67;40.10;;;22.00;99.90;;;;;;5088373;28;20043;-55
2023/08/18 03:51:14;;;;;;;46.65;41.53;;;22.00;99.90;;;;;;5114654;28;20046;-54
2023/08/18 03:53:40;;;;;;;45.97;41.40;;;22.10;99.90;;;;;;5114455;28;20483;-55
2023/08/18 03:56:06;;;;;;;47.10;42.10;;;22.00;99.90;;;;;;5114046;28;20063;-55
2023/08/18 03:58:32;;;;;;;47.00;42.00;;;22.00;99.90;;;;;;5114499;28;20080;-55
2023/08/18 04:01:06;;;;;;;47.95;42.63;;;22.10;99.90;;;;;;5114369;28;20062;-53
2023/08/18 04:03:34;;;;;;;47.15;42.22;;;22.10;99.90;;;;;;5113838;28;20077;-53
2023/08/18 04:06:00;;;;;;;44.10;39.85;;;22.10;99.90;;;;;;5114110;28;20019;-54
2023/08/18 04:08:26;;;;;;;45.85;41.25;;;22.10;99.90;;;;;;5114338;28;20028;-54
2023/08/18 04:10:52;;;;;;;45.22;40.38;;;22.20;99.90;;;;;;5114219;28;20031;-55
2023/08/18 04:13:17;;;;;;;47.38;42.53;;;22.20;99.90;;;;;;5110849;28;20058;-55
2023/08/18 04:15:45;;;;;;;44.45;39.65;;;22.20;99.90;;;;;;5093747;28;20036;-54
2023/08/18 04:18:11;;;;;;;43.45;39.25;;;22.20;99.90;;;;;;5091625;28;20876;-55
2023/08/18 04:20:36;;;;;;;43.83;39.53;;;22.20;99.90;;;;;;5099143;28;20107;-54
2023/08/18 04:23:02;;;;;;;46.08;41.60;;;22.20;99.90;;;;;;5092767;28;20023;-56
2023/08/18 04:25:28;;;;;;;43.63;38.80;;;22.30;99.90;;;;;;5096118;28;20027;-55
2023/08/18 04:27:53;;;;;;;44.28;40.03;;;22.30;99.90;;;;;;5103129;28;20038;-55
2023/08/18 04:30:19;;;;;;;42.28;38.17;;;22.30;99.90;;;;;;5089025;28;20074;-54
2023/08/18 04:32:45;;;;;;;44.78;40.00;;;22.30;99.90;;;;;;5108094;28;20114;-55
2023/08/18 04:35:11;;;;;;;43.03;37.70;;;22.30;99.90;;;;;;5113045;28;20031;-53
2023/08/18 04:37:36;;;;;;;41.30;37.08;;;22.30;99.90;;;;;;5113724;28;20028;-55
2023/08/18 04:40:04;;;;;;;41.25;37.15;;;22.40;99.90;;;;;;5096624;28;20126;-54
2023/08/18 04:42:30;;;;;;;42.38;38.10;;;22.30;99.90;;;;;;5096838;28;20071;-54
2023/08/18 04:44:56;;;;;;;42.95;38.65;;;22.40;99.90;;;;;;5092929;28;20048;-54
2023/08/18 04:47:22;;;;;;;41.65;37.45;;;22.50;99.90;;;;;;5093012;28;20034;-55
2023/08/18 04:49:47;;;;;;;42.63;38.33;;;22.60;99.90;;;;;;5093107;28;20028;-55
2023/08/18 04:52:14;;;;;;;42.13;37.67;;;22.60;99.90;;;;;;5093009;28;20552;-54
2023/08/18 04:54:40;;;;;;;37.30;32.08;;;22.60;99.90;;;;;;5105585;28;20490;-56
2023/08/18 04:57:07;;;;;;;38.58;34.80;;;22.70;99.90;;;;;;5101656;28;20027;-54
2023/08/18 04:59:33;;;;;;;40.33;36.47;;;22.70;99.90;;;;;;5097069;28;20077;-54
2023/08/18 05:01:59;;;;;;;38.38;34.70;;;22.80;99.90;;;;;;5084800;28;20510;-55
2023/08/18 05:04:25;;;;;;;38.22;34.20;;;22.90;99.90;;;;;;5101664;28;20017;-55
2023/08/18 05:06:51;;;;;;;36.83;33.05;;;22.80;99.90;;;;;;5102885;28;20019;-53
2023/08/18 05:09:18;;;;;;;37.15;33.33;;;22.90;99.90;;;;;;5103250;28;20035;-56
2023/08/18 05:11:43;;;;;;;36.35;32.53;;;23.00;99.90;;;;;;5102236;28;20069;-55
2023/08/18 05:14:09;;;;;;;35.85;32.08;;;23.00;99.90;;;;;;5105070;28;20556;-53
2023/08/18 05:16:35;;;;;;;34.78;31.27;;;23.10;99.90;;;;;;5096232;28;20497;-55
2023/08/18 05:19:01;;;;;;;36.05;32.22;;;23.10;99.90;;;;;;5095436;28;20111;-55
2023/08/18 05:21:27;;;;;;;34.88;31.33;;;23.20;99.90;;;;;;5092887;28;20031;-53
2023/08/18 05:23:52;;;;;;;33.03;29.65;;;23.20;99.90;;;;;;5100589;28;20049;-56
2023/08/18 05:26:18;;;;;;;31.42;28.27;;;23.20;99.90;;;;;;5092445;28;20130;-55
2023/08/18 05:28:44;;;;;;;33.28;30.17;;;23.30;99.90;;;;;;5093024;28;20024;-53
2023/08/18 05:31:11;;;;;;;32.67;29.05;;;23.30;99.90;;;;;;5108127;28;20040;-54
2023/08/18 05:33:37;;;;;;;33.45;29.85;;;23.40;99.90;;;;;;5113518;28;20031;-51
2023/08/18 05:36:05;;;;;;;31.00;27.73;;;23.40;99.90;;;;;;5116848;28;20081;-51
2023/08/18 05:38:31;;;;;;;31.35;28.13;;;23.40;99.90;;;;;;5097593;28;20440;-51
2023/08/18 05:41:07;;;;;;;31.20;28.05;;;23.50;99.90;;;;;;5097935;28;20123;-52
2023/08/18 05:43:37;;;;;;;32.30;29.10;;;23.60;99.90;;;;;;5116672;28;20032;-50
2023/08/18 05:46:03;;;;;;;31.38;27.95;;;23.60;99.90;;;;;;5116939;28;20059;-51
2023/08/18 05:48:30;;;;;;;31.23;28.15;;;23.70;99.90;;;;;;5116550;28;20386;-51
2023/08/18 05:50:56;;;;;;;31.60;28.00;;;23.70;99.90;;;;;;5114884;28;20039;-51
2023/08/18 05:53:22;;;;;;;29.48;26.48;;;23.80;99.90;;;;;;5094089;28;20078;-52
2023/08/18 05:55:50;;;;;;;31.65;28.38;;;23.90;99.90;;;;;;5114180;28;20490;-50
2023/08/18 05:58:16;;;;;;;29.70;26.27;;;23.90;99.90;;;;;;5115982;28;20032;-51
2023/08/18 06:00:42;;;;;;;30.25;27.13;;;23.90;99.90;;;;;;5080737;28;20043;-51
2023/08/18 06:03:08;;;;;;;31.15;27.92;;;23.90;99.90;;;;;;5062926;28;20032;-50
2023/08/18 06:05:34;;;;;;;29.70;26.65;;;23.90;99.90;;;;;;5113249;28;20367;-51
2023/08/18 06:08:00;;;;;;;31.33;28.25;;;24.00;99.90;;;;;;5116515;28;20502;-51
2023/08/18 06:10:26;;;;;;;28.45;25.65;;;24.10;99.90;;;;;;5116489;28;20020;-51
2023/08/18 06:12:52;;;;;;;28.52;25.73;;;24.10;99.90;;;;;;5116753;28;20085;-51
2023/08/18 06:15:19;;;;;;;29.02;26.40;;;24.10;99.90;;;;;;5114483;28;20071;-52
2023/08/18 06:17:45;;;;;;;34.13;26.17;;;24.00;99.90;;;;;;5116895;28;20433;-50
2023/08/18 06:20:12;;;;;;;29.02;26.13;;;24.20;99.90;;;;;;5116621;28;20340;-51
2023/08/18 06:22:38;;;;;;;29.85;26.80;;;24.10;99.90;;;;;;5116131;28;20497;-50
2023/08/18 06:25:07;;;;;;;27.95;25.13;;;24.10;99.90;;;;;;5114357;28;20031;-51
2023/08/18 06:27:33;;;;;;;31.13;25.92;;;24.10;99.90;;;;;;5116284;28;20104;-50
2023/08/18 06:29:59;;;;;;;28.10;25.00;;;24.10;99.90;;;;;;5116245;28;20066;-51
2023/08/18 06:32:25;;;;;;;25.17;22.58;;;24.30;99.90;;;;;;5115278;28;20059;-51
2023/08/18 06:34:51;;;;;;;27.38;24.52;;;24.50;99.90;;;;;;5116138;28;20038;-50
2023/08/18 06:37:18;;;;;;;28.83;26.08;;;24.40;99.90;;;;;;5114825;28;20027;-50
2023/08/18 06:39:43;;;;;;;34.22;25.10;;;24.40;99.90;;;;;;5113857;28;20041;-51
2023/08/18 06:42:09;;;;;;;28.55;25.67;;;24.50;99.90;;;;;;5096985;28;20102;-51
2023/08/18 06:44:35;;;;;;;26.73;23.63;;;24.50;99.90;;;;;;5109924;28;20040;-51
2023/08/18 06:47:01;;;;;;;28.25;24.77;;;24.60;99.90;;;;;;5110490;28;20036;-51
2023/08/18 06:49:27;;;;;;;26.65;23.98;;;24.60;99.90;;;;;;5095568;28;20157;-51
2023/08/18 06:51:53;;;;;;;27.20;24.33;;;24.80;99.90;;;;;;5095268;28;20131;-51
2023/08/18 06:54:19;;;;;;;28.42;25.60;;;24.90;99.90;;;;;;5095574;28;20024;-51
2023/08/18 06:56:44;;;;;;;26.23;23.65;;;24.90;99.90;;;;;;5094925;28;20043;-53
2023/08/18 06:59:12;;;;;;;27.80;24.90;;;25.00;99.90;;;;;;5095145;28;20103;-51
2023/08/18 07:01:38;;;;;;;28.67;23.90;;;25.10;99.90;;;;;;5095209;28;20055;-52
2023/08/18 07:04:04;;;;;;;25.23;22.50;;;25.20;99.90;;;;;;5095179;28;20078;-51
2023/08/18 07:06:31;;;;;;;27.63;24.50;;;25.40;99.90;;;;;;5087636;28;20027;-51
2023/08/18 07:08:57;;;;;;;25.60;23.13;;;25.60;99.90;;;;;;5076896;28;20032;-51
2023/08/18 07:11:23;;;;;;;25.55;23.05;;;25.70;99.90;;;;;;5074646;28;20032;-51
2023/08/18 07:13:48;;;;;;;26.42;22.98;;;25.90;99.90;;;;;;5074972;28;20028;-51
2023/08/18 07:16:14;;;;;;;24.73;22.27;;;;;;;;;;5074178;28;20029;-51
2023/08/18 07:18:40;;;;;;;27.15;23.90;;;26.20;99.90;;;;;;5074450;28;20021;-51
2023/08/18 07:21:06;;;;;;;24.05;21.40;;;26.30;99.90;;;;;;5074396;28;20427;-51
2023/08/18 07:23:32;;;;;;;23.65;21.30;;;26.40;99.90;;;;;;5074024;28;20103;-51
2023/08/18 07:25:58;;;;;;;23.13;20.83;;;;;;;;;;5073094;28;20058;-51
2023/08/18 07:28:25;;;;;;;28.58;24.33;;;27.00;99.90;;;;;;5074817;28;20107;-51
2023/08/18 07:30:51;;;;;;;25.15;22.48;;;27.00;99.90;;;;;;5074328;28;20082;-51
2023/08/18 07:33:17;;;;;;;23.80;21.48;;;27.30;99.90;;;;;;5089309;28;20476;-51
2023/08/18 07:35:43;;;;;;;25.90;23.40;;;27.30;99.90;;;;;;5074274;28;20036;-52
2023/08/18 07:38:09;;;;;;;23.05;20.80;;;27.40;99.90;;;;;;5075755;28;20383;-51
2023/08/18 07:40:35;;;;;;;22.40;20.17;;;27.50;99.90;;;;;;5089998;28;20024;-51
2023/08/18 07:43:00;;;;;;;21.52;19.35;;;27.40;99.90;;;;;;5074029;28;20049;-51
2023/08/18 07:45:29;;;;;;;21.90;19.17;;;27.30;99.90;;;;;;5073770;28;20087;-51
2023/08/18 07:47:57;;;;;;;27.08;19.83;;;27.50;99.90;;;;;;5071762;28;20102;-51
2023/08/18 07:50:23;;;;;;;19.65;17.75;;;;;;;;;;5055144;28;20105;-51
2023/08/18 07:52:49;;;;;;;21.52;19.45;;;27.90;99.90;;;;;;5087860;28;20028;-51
2023/08/18 07:55:21;;;;;;;20.35;18.27;;;28.20;99.90;;;;;;5092848;28;20028;-52
2023/08/18 07:57:47;;;;;;;18.98;16.98;;;28.20;99.90;;;;;;5091782;28;20031;-55
2023/08/18 08:00:17;;;;;;;24.73;18.05;;;28.40;99.90;;;;;;5094049;28;20112;-52
2023/08/18 08:02:47;;;;;;;20.70;18.75;;;28.50;99.90;;;;;;5087819;28;20455;-52
2023/08/18 08:05:14;;;;;;;19.45;17.50;;;;;;;;;;5083208;28;20040;-53
2023/08/18 08:07:40;;;;;;;19.38;17.40;;;28.80;99.90;;;;;;5082227;28;20038;-53
2023/08/18 08:10:06;;;;;;;18.70;16.98;;;28.90;99.90;;;;;;5083555;28;20028;-52
2023/08/18 08:12:34;;;;;;;18.20;16.40;;;29.10;99.90;;;;;;5082966;28;20050;-52
2023/08/18 08:15:01;;;;;;;19.17;17.15;;;29.30;99.90;;;;;;5073756;28;20436;-52
2023/08/18 08:17:29;;;;;;;20.17;15.93;;;;;;;;;;5073174;28;20058;-52
2023/08/18 08:19:56;;;;;;;18.30;16.38;;;30.40;99.90;;;;;;5087370;28;20043;-52
2023/08/18 08:22:22;;;;;;;18.20;16.08;;;30.20;99.90;;;;;;5090387;28;20039;-51
2023/08/18 08:24:50;;;;;;;15.82;14.32;;;30.50;99.90;;;;;;5083818;28;20028;-52
2023/08/18 08:27:17;;;;;;;16.83;15.18;;;30.60;99.90;;;;;;5078252;28;20036;-50
2023/08/18 08:29:43;;;;;;;17.13;15.15;;;;;;;;;;5079277;28;20471;-50
2023/08/18 08:32:09;;;;;;;15.68;14.00;;;;;;;;;;5079186;28;20605;-50
2023/08/18 08:34:41;;;;;;;16.50;14.75;;;31.30;99.90;;;;;;5090636;28;20417;-53
2023/08/18 08:37:07;;;;;;;18.75;14.32;;;31.30;99.90;;;;;;5089630;28;20056;-51
2023/08/18 08:39:33;;;;;;;17.80;13.73;;;31.10;99.90;;;;;;5078018;28;20036;-53
2023/08/18 08:41:59;;;;;;;15.45;13.30;;;;;;;;;;5088260;28;20024;-52
2023/08/18 08:44:25;;;;;;;15.82;14.13;;;;;;;;;;5087851;28;20077;-53
2023/08/18 08:46:52;;;;;;;16.65;13.30;;;;;;;;;;5077901;28;20035;-52
2023/08/18 08:49:20;;;;;;;14.57;13.18;;;;;;;;;;5102986;28;20021;-53
2023/08/18 08:51:48;;;;;;;17.52;13.70;;;;;;;;;;5102093;28;20102;-52
2023/08/18 08:54:18;;;;;;;13.50;12.23;;;32.40;99.90;;;;;;5101169;28;20432;-53
2023/08/18 08:56:47;;;;;;;13.63;11.30;;;32.10;99.90;;;;;;5106780;28;20044;-55
2023/08/18 08:59:15;;;;;;;17.83;13.07;;;32.00;99.90;;;;;;5104206;28;20028;-56
2023/08/18 09:01:41;;;;;;;14.00;12.50;;;32.20;99.90;;;;;;5105574;28;20028;-53
2023/08/18 09:04:08;;;;;;;15.18;13.65;;;;;;;;;;5103595;28;20085;-53
2023/08/18 09:06:34;;;;;;;13.85;12.45;;;32.30;99.90;;;;;;5069484;28;20066;-52
2023/08/18 09:09:00;;;;;;;13.50;11.95;;;32.60;99.90;;;;;;5114994;28;20031;-52
2023/08/18 09:11:42;;;;;;;13.70;12.30;;;32.20;99.90;;;;;;5112687;28;20028;-53
2023/08/18 09:14:11;;;;;;;13.82;12.35;;;32.50;99.90;;;;;;5107117;28;20049;-52
2023/08/18 09:16:37;;;;;;;13.15;11.82;;;32.40;99.90;;;;;;5084501;28;20047;-52
2023/08/18 09:19:03;;;;;;;14.90;11.23;;;32.40;99.90;;;;;;5107511;28;20039;-53
2023/08/18 09:21:29;;;;;;;12.75;10.90;;;32.00;99.90;;;;;;5069462;28;20055;-55
2023/08/18 09:23:56;;;;;;;11.63;10.52;;;32.00;99.90;;;;;;5109745;28;20356;-53
2023/08/18 09:26:22;;;;;;;29.55;12.57;;;31.60;99.90;;;;;;5106327;28;20398;-53
2023/08/18 09:28:48;;;;;;;12.13;11.02;;;32.30;99.90;;;;;;5089395;28;20055;-54
2023/08/18 09:31:14;;;;;;;12.93;10.63;;;;;;;;;;5109880;28;20375;-54
2023/08/18 09:33:40;;;;;;;16.38;11.15;;;33.30;99.90;;;;;;5096875;28;20032;-52
2023/08/18 09:36:06;;;;;;;13.82;9.88;;;32.80;99.90;;;;;;5115218;28;20038;-54
2023/08/18 09:38:40;;;;;;;12.98;10.32;;;32.40;99.90;;;;;;5116756;28;20038;-48
2023/08/18 09:41:05;;;;;;;16.75;10.93;;;32.30;99.90;;;;;;5117254;28;20390;-51
2023/08/18 09:43:32;;;;;;;11.73;10.52;;;32.20;99.90;;;;;;5114013;28;20026;-53
2023/08/18 09:45:59;;;;;;;16.75;10.45;;;32.00;99.90;;;;;;5113298;28;20467;-51
2023/08/18 09:48:27;;;;;;;14.60;10.65;;;31.70;99.90;;;;;;5109389;28;20077;-51
2023/08/18 09:50:57;;;;;;;11.23;10.13;;;31.40;99.90;;;;;;5077365;28;20055;-51
2023/08/18 09:53:29;;;;;;;12.00;9.65;;;31.40;99.90;;;;;;5110650;28;20023;-52
2023/08/18 09:56:07;;;;;;;10.38;9.30;;;31.60;99.90;;;;;;5080655;28;20044;-51
2023/08/18 09:58:47;;;;;;;10.18;8.95;;;31.70;99.90;;;;;;5116746;28;20100;-52
2023/08/18 10:01:15;;;;;;;10.98;9.07;;;32.00;99.90;;;;;;5047241;28;20039;-51
2023/08/18 10:03:42;;;;;;;9.38;8.10;;;32.40;99.90;;;;;;5111821;28;20028;-52
2023/08/18 10:06:08;;;;;;;9.50;8.48;;;32.50;99.90;;;;;;5111570;28;20039;-52
2023/08/18 10:08:35;;;;;;;11.73;8.80;;;;;;;;;;5094774;28;20043;-52
2023/08/18 10:11:01;;;;;;;9.50;8.70;;;32.90;99.90;;;;;;5115353;28;20030;-51
2023/08/18 10:13:30;;;;;;;14.02;8.80;;;;;;;;;;5111543;28;20020;-52
2023/08/18 10:15:56;;;;;;;10.63;9.13;;;;;;;;;;5108095;28;20048;-52
2023/08/18 10:18:23;;;;;;;9.13;8.13;;;;;;;;;;5110308;28;20076;-51
2023/08/18 10:20:49;;;;;;;14.00;8.32;;;;;;;;;;5104853;28;20020;-51
2023/08/18 10:23:17;;;;;;;11.15;9.52;;;;;;;;;;5110355;28;20534;-53
2023/08/18 10:25:45;;;;;;;17.40;10.18;;;34.80;99.90;;;;;;5102790;28;20035;-52
2023/08/18 10:28:17;;;;;;;12.52;9.30;;;34.80;99.90;;;;;;5103944;28;20536;-55
2023/08/18 10:31:05;;;;;;;10.98;9.82;;;34.70;99.90;;;;;;5098009;28;20110;-53
2023/08/18 10:33:35;;;;;;;10.77;9.50;;;35.10;99.90;;;;;;5098554;28;20076;-51
2023/08/18 10:36:03;;;;;;;11.32;10.07;;;35.30;99.90;;;;;;5104701;28;20474;-51
2023/08/18 10:38:29;;;;;;;12.60;10.25;;;35.40;99.90;;;;;;5107267;28;20391;-52
2023/08/18 10:40:55;;;;;;;13.25;9.80;;;35.10;99.90;;;;;;5086206;28;20122;-52
2023/08/18 10:43:26;;;;;;;12.60;10.65;;;34.90;99.90;;;;;;5103808;28;20024;-52
2023/08/18 10:46:00;;;;;;;11.57;10.48;;;34.70;99.90;;;;;;5104587;28;20131;-52
2023/08/18 10:48:33;;;;;;;16.15;10.40;;;34.60;99.90;;;;;;5108889;28;20097;-53
2023/08/18 10:50:59;;;;;;;10.98;9.52;;;34.90;99.90;;;;;;5106568;28;20055;-52
2023/08/18 10:53:25;;;;;;;13.07;11.02;;;35.00;99.90;;;;;;5103574;28;20024;-51
2023/08/18 10:55:53;;;;;;;10.93;10.02;;;34.60;99.90;;;;;;5108116;28;20135;-52
2023/08/18 10:58:21;;;;;;;14.52;10.55;;;34.50;99.90;;;;;;5107646;28;20039;-52
2023/08/18 11:00:47;;;;;;;11.52;10.27;;;34.20;99.90;;;;;;5084149;28;20036;-54
2023/08/18 11:03:13;;;;;;;10.88;9.88;;;34.20;99.90;;;;;;5101120;28;20107;-53
2023/08/18 11:05:39;;;;;;;17.05;11.00;;;34.20;99.90;;;;;;5106766;28;20019;-52
2023/08/18 11:08:10;;;;;;;12.82;11.15;;;33.90;99.90;;;;;;5102694;28;20030;-53
2023/08/18 11:10:38;;;;;;;11.40;10.03;;;33.80;99.90;;;;;;5103587;28;20034;-52
2023/08/18 11:13:05;;;;;;;13.95;11.95;;;34.10;99.90;;;;;;5099583;28;20035;-54
2023/08/18 11:15:31;;;;;;;18.35;11.90;;;34.00;99.90;;;;;;5094692;28;20039;-53
2023/08/18 11:17:57;;;;;;;16.85;11.60;;;34.30;99.90;;;;;;5094671;28;20020;-52
2023/08/18 11:20:23;;;;;;;13.20;11.45;;;34.50;99.90;;;;;;5097541;28;20094;-53
2023/08/18 11:22:54;;;;;;;16.67;11.38;;;34.10;99.90;;;;;;5086913;28;20033;-53
2023/08/18 11:25:22;;;;;;;13.00;11.70;;;34.50;99.90;;;;;;5080511;28;20595;-52
2023/08/18 11:27:49;;;;;;;14.40;12.20;;;;;;;;;;5072124;28;20033;-52
2023/08/18 11:30:15;;;;;;;13.27;11.68;;;34.80;99.90;;;;;;5072196;28;20032;-53
2023/08/18 11:32:42;;;;;;;13.45;12.13;;;34.80;99.90;;;;;;5072114;28;20040;-53
2023/08/18 11:35:09;;;;;;;16.92;12.30;;;;;;;;;;5082400;28;20021;-53
2023/08/18 11:37:53;;;;;;;12.70;11.48;;;;;;;;;;5082038;28;20032;-53
2023/08/18 11:40:21;;;;;;;14.13;10.50;;;;;;;;;;5080550;28;20024;-54
2023/08/18 11:42:52;;;;;;;12.80;10.98;;;36.10;99.90;;;;;;5079909;28;20032;-52
2023/08/18 11:45:20;;;;;;;15.57;10.90;;;35.60;99.90;;;;;;5080090;28;20068;-50
2023/08/18 11:48:07;;;;;;;15.40;11.85;;;35.90;99.90;;;;;;5076718;28;20024;-50
2023/08/18 11:50:35;;;;;;;10.65;9.38;;;36.30;99.90;;;;;;5081336;28;20046;-52
2023/08/18 11:53:03;;;;;;;12.63;11.30;;;36.50;99.90;;;;;;5085443;28;20394;-51
2023/08/18 11:55:40;;;;;;;14.30;10.75;;;36.30;99.90;;;;;;5089446;28;20055;-54
2023/08/18 11:58:10;;;;;;;10.85;9.70;;;35.90;99.90;;;;;;5113661;28;20023;-52
2023/08/18 12:00:37;;;;;;;13.02;11.70;;;35.10;99.90;;;;;;5111605;27;20024;-51
2023/08/18 12:03:05;;;;;;;12.27;11.02;;;34.80;99.90;;;;;;5109518;27;20072;-52
2023/08/18 12:05:31;;;;;;;13.77;10.77;;;34.90;99.90;;;;;;5078036;28;20070;-52
2023/08/18 12:08:00;;;;;;;16.08;11.35;;;34.50;99.90;;;;;;5105222;28;20081;-53
2023/08/18 12:10:26;;;;;;;13.52;10.18;;;34.60;99.90;;;;;;5113837;28;20072;-52
2023/08/18 12:12:52;;;;;;;23.10;20.70;;;;;;;;;;5106168;28;20032;-52
2023/08/18 12:15:23;;;;;;;27.83;15.65;;;34.30;99.90;;;;;;5093168;28;20028;-52
2023/08/18 12:17:49;;;;;;;76.03;30.00;;;33.80;99.90;;;;;;5100709;28;20039;-49
2023/08/18 12:20:18;;;;;;;27.17;16.88;;;33.60;99.90;;;;;;5107648;28;20097;-49
2023/08/18 12:22:45;;;;;;;32.90;17.52;;;33.30;99.90;;;;;;5110442;28;20118;-49
2023/08/18 12:25:11;;;;;;;34.67;31.23;;;33.20;99.90;;;;;;5111369;28;20611;-49
2023/08/18 12:27:36;;;;;;;14.65;12.82;;;33.40;99.90;;;;;;5108998;28;20110;-48
2023/08/18 12:30:03;;;;;;;14.70;13.00;;;33.40;99.90;;;;;;5106196;28;20051;-48
2023/08/18 12:32:30;;;;;;;12.50;11.27;;;33.40;99.90;;;;;;5113721;28;20503;-48
2023/08/18 12:34:57;;;;;;;19.33;17.35;;;33.40;99.90;;;;;;5091574;28;21491;-48